Hayward, Missouri
Current Conditions -  °F | °C
As of 10:55 AM on Saturday 22 Nov 2014 (Local Time) from KDYR Reporting Station
Overcast Overcast  
Wind Chill: 61°   Ceiling: 5000
Heat Index: 61°   Visibility: 10mi
Dew Point: 36°   Wind: 12mph
Humidity: 39%   Direction: 160°SSE
Pressure: 30.23"   Gusts: NA
Location:  36.4157°N, 89.6885°W
Report Text: KDYR 221655Z 16010KT 10SM OVC050 16/02 A3023 RMK AO1
Loading
Personal Weather Stations






























Interactive Weather Map New forecast layout! Learn more

10-Day Weather Forecast

Advertisements
Track Severe Weather on mobile